createdAt,value
2023-04-11T00:00:29.379Z,93344.63
2023-04-11T00:01:26.491Z,93438.63
2023-04-11T00:02:23.361Z,93418.41
2023-04-11T00:03:20.302Z,93423.38
2023-04-11T00:04:17.869Z,93429.44
2023-04-11T00:05:15.028Z,93420.25
2023-04-11T00:06:11.622Z,93429.44
2023-04-11T00:07:08.277Z,93429.06
2023-04-11T00:08:05.327Z,93426.69
2023-04-11T00:09:01.998Z,93406.88
2023-04-11T00:09:58.627Z,93422.38
2023-04-11T00:10:55.335Z,93422.84
2023-04-11T00:11:52.098Z,93418.31
2023-04-11T00:12:48.745Z,93414.91
2023-04-11T00:13:45.389Z,93420.38
2023-04-11T00:14:45.365Z,93426.75
2023-04-11T00:15:42.042Z,93420.69
2023-04-11T00:16:39.677Z,93410.09
2023-04-11T00:17:37.880Z,93421.59
2023-04-11T00:18:36.335Z,93415.25
2023-04-11T00:19:33.490Z,93363.31
2023-04-11T00:20:30.098Z,93390.41
2023-04-11T00:21:26.736Z,93414.31
2023-04-11T00:22:24.514Z,93417.19
2023-04-11T00:23:21.147Z,93417.66
2023-04-11T00:24:18.192Z,93427.16
2023-04-11T00:25:15.416Z,93418.44
2023-04-11T00:26:12.032Z,93418.75
2023-04-11T00:27:08.735Z,93408.84
2023-04-11T00:28:05.435Z,93426.06
2023-04-11T00:29:02.068Z,93420.75
2023-04-11T00:29:58.688Z,93417.06
2023-04-11T00:30:55.327Z,93425.44
2023-04-11T00:31:52.868Z,93420.69
2023-04-11T00:32:50.130Z,93418.44
2023-04-11T00:33:46.728Z,93350.91
2023-04-11T00:34:43.471Z,93395.81
2023-04-11T00:35:40.792Z,93397.69
2023-04-11T00:36:37.533Z,93424.22
2023-04-11T00:37:36.243Z,93426.91
2023-04-11T00:38:33.489Z,93419.03
2023-04-11T00:39:33.856Z,93421.75
2023-04-11T00:40:31.300Z,93424.16
2023-04-11T00:41:28.083Z,93408.44
2023-04-11T00:42:24.655Z,93406.25
2023-04-11T00:43:21.277Z,93420.75
2023-04-11T00:44:17.943Z,93421.88
2023-04-11T00:45:14.833Z,93398.94
2023-04-11T00:46:11.567Z,93419.00
2023-04-11T00:47:08.545Z,93422.41
2023-04-11T00:48:05.474Z,93421.94
2023-04-11T00:49:02.271Z,93420.13
2023-04-11T00:49:59.192Z,93423.91
2023-04-11T00:50:56.104Z,93423.97
2023-04-11T00:51:53.322Z,93424.88
2023-04-11T00:52:50.973Z,93396.66
2023-04-11T00:53:48.029Z,93423.75
2023-04-11T00:54:44.653Z,93431.06
2023-04-11T00:55:41.286Z,93401.78
2023-04-11T00:56:37.927Z,93425.59
2023-04-11T00:57:34.892Z,93429.25
2023-04-11T00:58:33.967Z,93392.91
2023-04-11T00:59:31.784Z,93376.28
2023-04-11T01:00:29.212Z,93311.81
2023-04-11T01:01:25.892Z,93429.97
2023-04-11T01:02:25.202Z,93390.94
2023-04-11T01:03:22.953Z,93428.03
2023-04-11T01:04:21.373Z,93412.38
2023-04-11T01:05:19.136Z,93422.63
2023-04-11T01:06:18.895Z,93431.00
2023-04-11T01:07:17.407Z,93427.28
2023-04-11T01:08:15.097Z,93417.78
2023-04-11T01:09:12.547Z,93374.53
2023-04-11T01:10:10.452Z,93429.63
2023-04-11T01:11:09.438Z,93427.78
2023-04-11T01:12:06.733Z,93406.88
2023-04-11T01:13:03.593Z,93427.19
2023-04-11T01:14:00.441Z,93416.19
2023-04-11T01:14:57.679Z,93396.09
2023-04-11T01:15:54.312Z,93419.56
2023-04-11T01:16:51.610Z,93360.94
2023-04-11T01:17:48.327Z,93414.09
2023-04-11T01:18:44.968Z,93424.75
2023-04-11T01:19:41.744Z,93424.88
2023-04-11T01:20:38.615Z,93366.44
2023-04-11T01:21:37.857Z,93375.44
2023-04-11T01:22:36.490Z,93426.09
2023-04-11T01:23:34.417Z,93419.28
2023-04-11T01:24:31.769Z,93353.03
2023-04-11T01:25:28.628Z,93422.28
2023-04-11T01:26:25.755Z,93382.59
2023-04-11T01:27:22.390Z,93418.16
2023-04-11T01:28:19.862Z,93417.38
2023-04-11T01:29:16.491Z,93427.63
2023-04-11T01:30:13.239Z,93418.28
2023-04-11T01:31:09.924Z,93412.31
2023-04-11T01:32:06.706Z,93408.19
2023-04-11T01:33:03.382Z,93411.69
2023-04-11T01:34:04.338Z,93406.13
2023-04-11T01:35:03.441Z,93402.72
2023-04-11T01:36:00.159Z,93399.13
2023-04-11T01:36:57.010Z,93395.69
2023-04-11T01:37:54.135Z,93396.47
2023-04-11T01:38:50.954Z,93399.56
2023-04-11T01:39:47.689Z,93398.81
2023-04-11T01:40:45.989Z,93379.25
2023-04-11T01:41:43.813Z,93396.28
2023-04-11T01:42:40.758Z,93336.47
2023-04-11T01:43:37.619Z,93392.31
2023-04-11T01:44:36.710Z,93401.50
2023-04-11T01:45:33.322Z,93399.78
2023-04-11T01:46:30.393Z,93325.03
2023-04-11T01:47:27.045Z,93389.03
2023-04-11T01:48:23.720Z,93409.84
2023-04-11T01:49:21.634Z,93402.41
2023-04-11T01:50:18.340Z,93367.53
2023-04-11T01:51:15.015Z,93352.06
2023-04-11T01:52:11.591Z,93397.22
2023-04-11T01:53:08.192Z,93401.72
2023-04-11T01:54:05.149Z,93399.78
2023-04-11T01:55:01.731Z,93401.16
2023-04-11T01:55:58.340Z,93323.38
2023-04-11T01:56:55.096Z,93394.22
2023-04-11T01:57:51.654Z,93363.69
2023-04-11T01:58:48.319Z,93381.25
2023-04-11T01:59:44.946Z,93405.78
2023-04-11T02:00:41.680Z,93404.63
2023-04-11T02:01:38.286Z,93408.38
2023-04-11T02:02:35.090Z,93405.13
2023-04-11T02:03:31.884Z,93362.31
2023-04-11T02:04:28.724Z,93402.78
2023-04-11T02:05:25.913Z,93402.94
2023-04-11T02:06:22.591Z,93407.00
2023-04-11T02:07:21.076Z,93409.59
2023-04-11T02:08:17.701Z,93350.63
2023-04-11T02:09:14.328Z,93401.94
2023-04-11T02:10:11.403Z,93403.31
2023-04-11T02:11:08.364Z,93364.53
2023-04-11T02:12:05.340Z,93340.50
2023-04-11T02:13:01.942Z,93405.09
2023-04-11T02:13:58.483Z,93358.00
2023-04-11T02:14:55.052Z,93400.81
2023-04-11T02:15:51.761Z,93399.09
2023-04-11T02:16:56.179Z,93399.09
2023-04-11T02:17:54.228Z,93401.84
2023-04-11T02:18:51.023Z,93387.91
2023-04-11T02:19:47.947Z,93401.13
2023-04-11T02:20:44.604Z,93402.84
2023-04-11T02:21:41.148Z,93396.94
2023-04-11T02:22:37.720Z,93403.44
2023-04-11T02:23:34.506Z,93393.44
2023-04-11T02:24:31.172Z,93396.72
2023-04-11T02:25:27.784Z,93337.75
2023-04-11T02:26:26.871Z,93401.72
2023-04-11T02:27:23.498Z,93375.38
2023-04-11T02:28:20.074Z,93352.94
2023-04-11T02:29:17.844Z,93396.84
2023-04-11T02:30:14.493Z,93398.56
2023-04-11T02:31:13.592Z,93386.00
2023-04-11T02:32:10.628Z,93394.53
2023-04-11T02:33:07.416Z,93394.72
2023-04-11T02:34:04.002Z,93395.41
2023-04-11T02:35:00.889Z,93336.78
2023-04-11T02:35:57.599Z,93395.56
2023-04-11T02:36:54.184Z,93391.50
2023-04-11T02:37:50.820Z,93346.41
2023-04-11T02:38:47.649Z,93391.84
2023-04-11T02:39:44.218Z,93389.44
2023-04-11T02:40:41.221Z,93408.22
2023-04-11T02:41:42.109Z,93391.91
2023-04-11T02:42:40.662Z,93392.69
2023-04-11T02:43:37.319Z,93390.34
2023-04-11T02:44:33.952Z,93387.25
2023-04-11T02:45:30.978Z,93316.22
2023-04-11T02:46:27.571Z,93390.81
2023-04-11T02:47:24.294Z,93371.94
2023-04-11T02:48:20.946Z,93344.78
2023-04-11T02:49:17.678Z,93374.84
2023-04-11T02:50:14.287Z,93392.84
2023-04-11T02:51:11.034Z,93380.72
2023-04-11T02:52:07.681Z,93391.00
2023-04-11T02:53:04.294Z,93389.59
2023-04-11T02:54:00.952Z,93385.53
2023-04-11T02:54:57.536Z,93384.75
2023-04-11T02:55:54.150Z,93368.16
2023-04-11T02:56:51.080Z,93383.03
2023-04-11T02:57:47.703Z,93379.47
2023-04-11T02:58:45.660Z,93376.81
2023-04-11T02:59:42.260Z,93373.22
2023-04-11T03:00:39.158Z,93377.56
2023-04-11T03:01:37.692Z,93376.53
2023-04-11T03:02:35.013Z,93331.09
2023-04-11T03:03:32.086Z,93362.50
2023-04-11T03:04:28.870Z,93327.91
2023-04-11T03:05:25.543Z,93380.19
2023-04-11T03:06:23.373Z,93374.91
2023-04-11T03:07:20.005Z,93377.06
2023-04-11T03:08:16.663Z,93374.25
2023-04-11T03:09:13.527Z,93374.44
2023-04-11T03:10:11.002Z,93375.69
2023-04-11T03:11:07.730Z,93333.72
2023-04-11T03:12:04.420Z,93368.38
2023-04-11T03:13:01.023Z,93371.31
2023-04-11T03:13:57.677Z,93370.72
2023-04-11T03:14:54.323Z,93374.31
2023-04-11T03:15:51.052Z,93365.59
2023-04-11T03:16:47.662Z,93371.53
2023-04-11T03:17:44.335Z,93381.81
2023-04-11T03:18:41.029Z,93293.41
2023-04-11T03:19:37.608Z,93376.69
2023-04-11T03:20:34.318Z,93383.97
2023-04-11T03:21:31.689Z,93378.81
2023-04-11T03:22:28.392Z,93383.84
2023-04-11T03:23:25.066Z,93373.28
2023-04-11T03:24:22.506Z,93379.53
2023-04-11T03:25:19.201Z,93329.44
2023-04-11T03:26:16.042Z,93377.78
2023-04-11T03:27:12.643Z,93377.34
2023-04-11T03:28:09.233Z,93379.66
2023-04-11T03:29:06.080Z,93369.25
2023-04-11T03:30:02.859Z,93372.97
2023-04-11T03:30:59.481Z,93376.59
2023-04-11T03:31:56.050Z,93373.31
2023-04-11T03:32:53.172Z,93374.66
2023-04-11T03:33:49.865Z,93379.34
2023-04-11T03:34:46.454Z,93375.09
2023-04-11T03:35:43.187Z,93353.06
2023-04-11T03:36:39.767Z,93378.66
2023-04-11T03:37:36.697Z,93344.16
2023-04-11T03:38:33.371Z,93378.09
2023-04-11T03:39:29.975Z,93379.28
2023-04-11T03:40:26.660Z,93370.53
2023-04-11T03:41:23.381Z,93374.41
2023-04-11T03:42:21.001Z,93377.22
2023-04-11T03:43:18.052Z,93373.81
2023-04-11T03:44:15.013Z,93375.81
2023-04-11T03:45:11.659Z,93369.81
2023-04-11T03:46:08.375Z,93361.97
2023-04-11T03:47:05.234Z,93370.81
2023-04-11T03:48:01.972Z,93363.84
2023-04-11T03:48:58.820Z,93368.09
2023-04-11T03:49:55.472Z,93367.88
2023-04-11T03:50:52.764Z,93370.41
2023-04-11T03:51:49.389Z,93383.97
2023-04-11T03:52:45.962Z,93373.28
2023-04-11T03:53:42.624Z,93372.97
2023-04-11T03:54:39.280Z,93361.31
2023-04-11T03:55:35.841Z,93331.13
2023-04-11T03:56:32.440Z,93368.91
2023-04-11T03:57:29.245Z,93369.84
2023-04-11T03:58:26.405Z,93321.03
2023-04-11T03:59:22.991Z,93371.69
2023-04-11T04:00:20.651Z,93367.13
2023-04-11T04:01:17.247Z,93369.28
2023-04-11T04:02:16.112Z,93385.72
2023-04-11T04:03:13.798Z,93341.41
2023-04-11T04:04:10.699Z,93372.69
2023-04-11T04:05:07.658Z,93374.50
2023-04-11T04:06:04.445Z,93377.97
2023-04-11T04:07:01.863Z,93371.41
2023-04-11T04:07:58.506Z,93343.16
2023-04-11T04:08:55.255Z,93346.78
2023-04-11T04:09:52.397Z,93373.31
2023-04-11T04:10:49.145Z,93374.38
2023-04-11T04:11:45.699Z,93310.97
2023-04-11T04:12:42.339Z,93377.00
2023-04-11T04:13:39.040Z,93383.00
2023-04-11T04:14:35.697Z,93377.13
2023-04-11T04:15:32.733Z,93376.13
2023-04-11T04:16:29.309Z,93375.69
2023-04-11T04:17:25.943Z,93376.16
2023-04-11T04:18:22.655Z,93372.47
2023-04-11T04:19:19.282Z,93377.78
2023-04-11T04:20:15.986Z,93368.91
2023-04-11T04:21:13.875Z,93366.88
2023-04-11T04:22:12.308Z,93378.47
2023-04-11T04:23:08.989Z,93372.72
2023-04-11T04:24:06.075Z,93377.56
2023-04-11T04:25:02.880Z,93374.16
2023-04-11T04:26:02.316Z,93375.34
2023-04-11T04:27:00.971Z,93373.59
2023-04-11T04:27:58.247Z,93373.22
2023-04-11T04:28:57.489Z,93374.00
2023-04-11T04:30:03.615Z,93377.13
2023-04-11T04:31:02.274Z,93378.22
2023-04-11T04:32:00.052Z,93369.75
2023-04-11T04:32:58.948Z,93366.56
2023-04-11T04:33:58.728Z,93365.78
2023-04-11T04:34:55.376Z,93351.31
2023-04-11T04:35:52.046Z,93332.22
2023-04-11T04:36:49.413Z,93368.19
2023-04-11T04:37:46.260Z,93366.22
2023-04-11T04:38:45.904Z,93366.50
2023-04-11T04:39:42.447Z,93359.28
2023-04-11T04:40:41.823Z,93361.81
2023-04-11T04:41:39.209Z,93357.75
2023-04-11T04:42:36.481Z,93342.19
2023-04-11T04:43:33.183Z,93357.47
2023-04-11T04:44:29.917Z,93360.47
2023-04-11T04:45:26.749Z,93356.00
2023-04-11T04:46:23.635Z,93351.88
2023-04-11T04:47:23.771Z,93356.38
2023-04-11T04:48:20.711Z,93295.06
2023-04-11T04:49:17.275Z,93356.44
2023-04-11T04:50:13.853Z,93353.16
2023-04-11T04:51:10.482Z,93347.13
2023-04-11T04:52:07.122Z,93321.06
2023-04-11T04:53:03.764Z,93332.88
2023-04-11T04:54:00.467Z,93348.72
2023-04-11T04:54:58.298Z,93351.53
2023-04-11T04:55:54.864Z,93359.88
2023-04-11T04:56:51.438Z,93334.13
2023-04-11T04:57:48.047Z,93362.25
2023-04-11T04:58:47.278Z,93335.53
2023-04-11T04:59:47.124Z,93353.41
2023-04-11T05:00:44.112Z,93349.47
2023-04-11T05:01:40.800Z,93354.38
2023-04-11T05:02:38.083Z,93359.09
2023-04-11T05:03:36.090Z,93354.81
2023-04-11T05:04:34.195Z,93303.56
2023-04-11T05:05:30.922Z,93363.66
2023-04-11T05:06:29.314Z,93344.03
2023-04-11T05:07:26.515Z,93350.28
2023-04-11T05:08:23.143Z,93363.66
2023-04-11T05:09:19.792Z,93355.59
2023-04-11T05:10:16.376Z,93360.44
2023-04-11T05:11:12.944Z,93327.91
2023-04-11T05:12:09.541Z,93356.03
2023-04-11T05:13:06.173Z,93362.44
2023-04-11T05:14:02.781Z,93363.19
2023-04-11T05:14:59.408Z,93364.97
2023-04-11T05:15:56.172Z,93359.97
2023-04-11T05:16:52.807Z,93360.69
2023-04-11T05:17:49.641Z,93357.06
2023-04-11T05:18:46.667Z,93352.81
2023-04-11T05:19:43.248Z,93320.75
2023-04-11T05:20:39.781Z,93355.41
2023-04-11T05:21:39.640Z,93280.56
2023-04-11T05:22:38.056Z,93306.53
2023-04-11T05:23:34.730Z,93330.34
2023-04-11T05:24:31.356Z,93358.13
2023-04-11T05:25:28.045Z,93338.25
2023-04-11T05:26:24.681Z,93360.34
2023-04-11T05:27:21.369Z,93355.41
2023-04-11T05:28:17.996Z,93331.16
2023-04-11T05:29:14.607Z,93316.19
2023-04-11T05:30:11.766Z,93355.63
2023-04-11T05:31:08.809Z,93357.97
2023-04-11T05:32:05.876Z,93360.41
2023-04-11T05:33:02.565Z,93358.59
2023-04-11T05:33:59.328Z,93336.69
2023-04-11T05:34:59.094Z,93355.53
2023-04-11T05:35:56.798Z,93353.72
2023-04-11T05:36:53.461Z,93349.47
2023-04-11T05:37:50.157Z,93302.03
2023-04-11T05:38:47.003Z,93355.00
2023-04-11T05:39:43.616Z,93339.59
2023-04-11T05:40:40.254Z,93347.53
2023-04-11T05:41:36.813Z,93344.72
2023-04-11T05:42:33.395Z,93287.66
2023-04-11T05:43:30.066Z,93353.16
2023-04-11T05:44:26.615Z,93351.50
2023-04-11T05:45:23.532Z,93284.78
2023-04-11T05:46:20.904Z,93350.38
2023-04-11T05:47:17.538Z,93352.66
2023-04-11T05:48:16.167Z,93353.09
2023-04-11T05:49:12.954Z,93340.69
2023-04-11T05:50:10.837Z,93350.44
2023-04-11T05:51:08.105Z,93347.44
2023-04-11T05:52:04.895Z,93338.41
2023-04-11T05:53:01.620Z,93346.66
2023-04-11T05:53:58.557Z,93338.06
2023-04-11T05:54:55.522Z,93342.88
2023-04-11T05:55:52.250Z,93333.38
2023-04-11T05:56:48.845Z,93314.16
2023-04-11T05:57:45.583Z,93344.09
2023-04-11T05:58:43.455Z,93343.53
2023-04-11T05:59:40.076Z,93342.53
2023-04-11T06:00:38.300Z,93344.00
2023-04-11T06:01:34.905Z,93257.31
2023-04-11T06:02:31.725Z,93335.69
2023-04-11T06:03:28.626Z,93330.59
2023-04-11T06:04:25.658Z,93333.25
2023-04-11T06:05:22.616Z,93342.44
2023-04-11T06:06:19.252Z,93332.06
2023-04-11T06:07:15.955Z,93319.09
2023-04-11T06:08:12.705Z,93328.94
2023-04-11T06:09:10.906Z,93322.84
2023-04-11T06:10:08.322Z,93323.22
2023-04-11T06:11:05.239Z,93317.69
2023-04-11T06:12:03.537Z,93327.66
2023-04-11T06:13:00.381Z,93316.50
2023-04-11T06:13:57.242Z,93326.84
2023-04-11T06:14:54.020Z,93327.56
2023-04-11T06:15:50.978Z,93325.81
2023-04-11T06:16:47.642Z,93318.59
2023-04-11T06:17:45.314Z,93320.19
2023-04-11T06:18:41.927Z,93320.34
2023-04-11T06:19:38.744Z,93290.22
2023-04-11T06:20:35.502Z,93326.81
2023-04-11T06:21:32.378Z,93323.47
2023-04-11T06:22:28.991Z,93311.72
2023-04-11T06:23:25.601Z,93323.44
2023-04-11T06:24:36.216Z,93312.63
2023-04-11T06:25:32.910Z,93312.63
2023-04-11T06:26:29.531Z,93313.97
2023-04-11T06:27:26.831Z,93309.56
2023-04-11T06:28:23.503Z,93311.06
2023-04-11T06:29:20.113Z,93284.16
2023-04-11T06:30:16.878Z,93319.44
2023-04-11T06:31:13.639Z,93312.53
2023-04-11T06:32:12.254Z,93264.41
2023-04-11T06:33:08.911Z,93308.19
2023-04-11T06:34:05.594Z,93299.41
2023-04-11T06:35:02.459Z,93300.91
2023-04-11T06:35:59.123Z,93312.06
2023-04-11T06:36:56.059Z,93304.56
2023-04-11T06:37:52.878Z,93272.28
2023-04-11T06:38:49.446Z,93247.56
2023-04-11T06:39:46.130Z,93308.28
2023-04-11T06:40:42.708Z,93311.69
2023-04-11T06:41:39.308Z,93311.75
2023-04-11T06:42:35.944Z,93309.34
2023-04-11T06:43:32.520Z,93301.91
2023-04-11T06:44:29.382Z,93306.41
2023-04-11T06:45:26.045Z,93303.97
2023-04-11T06:46:22.727Z,93301.91
2023-04-11T06:47:19.477Z,93307.69
2023-04-11T06:48:18.070Z,93305.63
2023-04-11T06:49:14.718Z,93310.69
2023-04-11T06:50:11.544Z,93305.97
2023-04-11T06:51:10.413Z,93308.09
2023-04-11T06:52:07.081Z,93290.94
2023-04-11T06:53:03.690Z,93309.09
2023-04-11T06:54:00.434Z,93303.75
2023-04-11T06:54:57.170Z,93296.44
2023-04-11T06:55:53.884Z,93312.16
2023-04-11T06:56:53.649Z,93281.19
2023-04-11T06:57:50.329Z,93309.06
2023-04-11T06:58:46.912Z,93306.16
2023-04-11T06:59:43.657Z,93314.13
2023-04-11T07:00:40.234Z,93313.09
2023-04-11T07:01:39.589Z,93322.56
2023-04-11T07:02:36.658Z,93313.97
2023-04-11T07:03:33.565Z,93251.59
2023-04-11T07:04:30.342Z,93325.72
2023-04-11T07:05:27.524Z,93320.56
2023-04-11T07:06:24.153Z,93324.81
2023-04-11T07:07:21.021Z,93315.84
2023-04-11T07:08:17.582Z,93320.56
2023-04-11T07:09:14.640Z,93281.22
2023-04-11T07:10:11.380Z,93319.44
2023-04-11T07:11:08.168Z,93319.91
2023-04-11T07:12:05.461Z,93261.84
2023-04-11T07:13:02.081Z,93299.88
2023-04-11T07:14:02.686Z,93317.41
2023-04-11T07:14:59.388Z,93307.72
2023-04-11T07:15:56.108Z,93304.97
2023-04-11T07:16:52.753Z,93305.91
2023-04-11T07:17:51.416Z,93310.97
2023-04-11T07:18:49.381Z,93320.50
2023-04-11T07:19:46.685Z,93314.91
2023-04-11T07:20:43.359Z,93316.69
2023-04-11T07:21:39.948Z,93313.34
2023-04-11T07:22:36.702Z,93316.22
2023-04-11T07:23:33.335Z,93311.47
2023-04-11T07:24:30.610Z,93269.09
2023-04-11T07:25:30.487Z,93271.50
2023-04-11T07:26:32.025Z,93318.97
2023-04-11T07:27:28.880Z,93314.25
2023-04-11T07:28:25.931Z,93311.25
2023-04-11T07:29:22.502Z,93299.91
2023-04-11T07:30:19.369Z,93316.41
2023-04-11T07:31:18.090Z,93301.81
2023-04-11T07:32:14.765Z,93305.31
2023-04-11T07:33:11.471Z,93267.88
2023-04-11T07:34:08.181Z,93310.31
2023-04-11T07:35:05.030Z,93307.66
2023-04-11T07:36:01.773Z,93308.00
2023-04-11T07:37:01.061Z,93302.47
2023-04-11T07:37:58.360Z,93302.16
2023-04-11T07:38:55.071Z,93306.94
2023-04-11T07:39:52.104Z,93205.97
2023-04-11T07:40:48.720Z,93303.38
2023-04-11T07:41:45.338Z,93311.22
2023-04-11T07:42:42.318Z,93209.25
2023-04-11T07:43:39.490Z,93299.72
2023-04-11T07:44:36.197Z,93290.63
2023-04-11T07:45:34.201Z,93304.19
2023-04-11T07:46:30.952Z,93297.25
2023-04-11T07:47:27.629Z,93287.66
2023-04-11T07:48:26.276Z,93191.22
2023-04-11T07:49:23.038Z,93298.97
2023-04-11T07:50:20.055Z,93291.44
2023-04-11T07:51:17.209Z,93292.13
2023-04-11T07:52:14.580Z,93304.28
2023-04-11T07:53:11.234Z,93295.75
2023-04-11T07:54:09.459Z,93168.59
2023-04-11T07:55:06.703Z,93287.72
2023-04-11T07:56:05.036Z,93295.84
2023-04-11T07:57:02.135Z,93252.47
2023-04-11T07:57:58.841Z,93300.88
2023-04-11T07:58:57.113Z,93291.28
2023-04-11T07:59:53.699Z,93282.31
2023-04-11T08:00:51.060Z,93288.53
2023-04-11T08:01:47.773Z,93284.75
2023-04-11T08:02:44.584Z,93284.91
2023-04-11T08:03:41.537Z,93284.91
2023-04-11T08:04:39.059Z,93291.72
2023-04-11T08:05:36.943Z,93289.06
2023-04-11T08:06:33.569Z,93289.50
2023-04-11T08:07:30.447Z,93274.69
2023-04-11T08:08:27.080Z,93257.94
2023-04-11T08:09:23.811Z,93280.94
2023-04-11T08:10:20.383Z,93281.03
2023-04-11T08:11:17.170Z,93283.41
2023-04-11T08:12:13.816Z,93276.81
2023-04-11T08:13:12.762Z,93277.56
2023-04-11T08:14:09.359Z,93217.41
2023-04-11T08:15:07.036Z,93273.03
2023-04-11T08:16:06.559Z,93275.44
2023-04-11T08:17:04.640Z,93278.50
2023-04-11T08:18:05.113Z,93191.91
2023-04-11T08:19:01.986Z,93279.09
2023-04-11T08:20:01.714Z,93258.09
2023-04-11T08:20:58.773Z,93189.13
2023-04-11T08:21:55.464Z,93256.38
2023-04-11T08:22:52.090Z,93259.56
2023-04-11T08:23:49.747Z,93258.59
2023-04-11T08:24:46.448Z,93215.09
2023-04-11T08:25:43.387Z,93247.47
2023-04-11T08:26:40.008Z,93254.19
2023-04-11T08:27:36.876Z,93254.50
2023-04-11T08:28:33.549Z,93262.13
2023-04-11T08:29:30.126Z,93251.81
2023-04-11T08:30:27.486Z,93240.69
2023-04-11T08:31:24.198Z,93224.22
2023-04-11T08:32:20.873Z,93187.31
2023-04-11T08:33:17.474Z,93259.94
2023-04-11T08:34:14.182Z,93136.50
2023-04-11T08:35:11.051Z,93193.72
2023-04-11T08:36:10.333Z,93234.34
2023-04-11T08:37:07.459Z,93253.31
2023-04-11T08:38:04.090Z,93250.66
2023-04-11T08:39:01.102Z,93222.00
2023-04-11T08:39:57.875Z,93248.19
2023-04-11T08:40:55.508Z,93220.47
2023-04-11T08:41:52.103Z,93226.84
2023-04-11T08:42:49.129Z,93252.78
2023-04-11T08:43:47.044Z,93247.00
2023-04-11T08:44:43.614Z,93137.41
2023-04-11T08:45:41.231Z,93241.06
2023-04-11T08:46:41.851Z,93243.22
2023-04-11T08:47:38.542Z,93210.97
2023-04-11T08:48:35.634Z,93243.00
2023-04-11T08:49:32.387Z,93239.13
2023-04-11T08:50:29.046Z,93175.44
2023-04-11T08:51:28.960Z,93234.06
2023-04-11T08:52:26.084Z,93230.22
2023-04-11T08:53:24.972Z,93236.78
2023-04-11T08:54:21.653Z,93235.63
2023-04-11T08:55:18.339Z,93240.69
2023-04-11T08:56:18.028Z,93240.13
2023-04-11T08:57:25.938Z,93202.25
2023-04-11T08:58:22.828Z,93192.34
2023-04-11T08:59:19.505Z,93203.59
2023-04-11T09:00:19.180Z,93238.28
2023-04-11T09:01:29.650Z,93238.69
2023-04-11T09:02:27.528Z,93213.66
2023-04-11T09:03:24.366Z,93228.59
2023-04-11T09:04:21.063Z,93225.06
2023-04-11T09:05:32.686Z,93227.00
2023-04-11T09:06:30.970Z,93224.50
2023-04-11T09:07:29.078Z,93221.53
2023-04-11T09:08:38.315Z,93230.94
2023-04-11T09:09:36.892Z,93155.59
2023-04-11T09:10:34.233Z,93209.19
2023-04-11T09:11:31.145Z,93197.09
2023-04-11T09:12:30.299Z,93218.34
2023-04-11T09:13:27.904Z,93215.44
2023-04-11T09:14:26.905Z,93211.09
2023-04-11T09:15:29.220Z,93179.84
2023-04-11T09:16:26.108Z,93218.06
2023-04-11T09:17:22.765Z,93218.81
2023-04-11T09:18:35.564Z,93216.59
2023-04-11T09:19:34.121Z,93215.47
2023-04-11T09:20:31.367Z,93212.16
2023-04-11T09:21:30.799Z,93207.81
2023-04-11T09:22:36.210Z,93214.38
2023-04-11T09:23:33.312Z,93206.72
2023-04-11T09:24:30.546Z,93214.16
2023-04-11T09:25:27.842Z,93208.78
2023-04-11T09:26:29.521Z,93209.78
2023-04-11T09:27:26.409Z,93209.72
2023-04-11T09:28:24.041Z,93193.56
2023-04-11T09:29:47.647Z,93202.94
2023-04-11T09:30:52.432Z,93186.75
2023-04-11T09:31:49.107Z,93197.66
2023-04-11T09:32:46.346Z,93217.38
2023-04-11T09:33:57.276Z,93197.59
2023-04-11T09:35:15.617Z,93194.31
2023-04-11T09:36:19.954Z,93164.84
2023-04-11T09:37:16.692Z,93198.69
2023-04-11T09:38:13.326Z,93141.47
2023-04-11T09:39:20.142Z,93183.75
2023-04-11T09:40:20.640Z,93185.25
2023-04-11T09:41:30.104Z,93174.72
2023-04-11T09:42:26.756Z,93182.53
2023-04-11T09:43:23.406Z,93177.81
2023-04-11T09:44:20.085Z,93107.28
2023-04-11T09:45:24.297Z,93181.41
2023-04-11T09:46:22.170Z,93153.50
2023-04-11T09:47:19.167Z,93126.41
2023-04-11T09:48:16.545Z,93181.47
2023-04-11T09:49:13.241Z,93119.69
2023-04-11T09:50:10.139Z,93171.34
2023-04-11T09:51:07.218Z,93146.69
2023-04-11T09:52:04.129Z,93094.63
2023-04-11T09:53:01.181Z,93132.34
2023-04-11T09:53:58.900Z,93139.78
2023-04-11T09:54:55.966Z,93167.47
2023-04-11T09:55:52.976Z,93164.97
2023-04-11T09:56:50.301Z,93161.66
2023-04-11T09:57:48.823Z,93162.22
2023-04-11T09:58:47.666Z,93159.06
2023-04-11T09:59:44.285Z,93161.84
2023-04-11T10:00:43.694Z,93124.72
2023-04-11T10:01:41.359Z,93155.00
2023-04-11T10:02:38.131Z,93161.41
2023-04-11T10:03:36.825Z,93071.91
2023-04-11T10:04:34.601Z,93119.44
2023-04-11T10:05:31.995Z,93140.28
2023-04-11T10:06:41.492Z,93159.38
2023-04-11T10:08:05.933Z,93068.25
2023-04-11T10:09:11.490Z,93131.94
2023-04-11T10:10:08.820Z,93157.84
2023-04-11T10:11:08.793Z,93161.97
2023-04-11T10:12:06.153Z,93152.25
2023-04-11T10:13:03.642Z,93152.13
2023-04-11T10:14:00.336Z,93148.22
2023-04-11T10:14:56.976Z,93143.84
2023-04-11T10:16:16.565Z,93141.09
2023-04-11T10:17:22.766Z,93149.25
2023-04-11T10:18:19.821Z,93141.72
2023-04-11T10:19:19.424Z,93146.91
2023-04-11T10:20:43.990Z,93137.06
2023-04-11T10:21:42.740Z,93137.59
2023-04-11T10:22:46.542Z,93133.84
2023-04-11T10:24:13.437Z,93127.69
2023-04-11T10:25:22.051Z,93127.88
2023-04-11T10:26:18.687Z,93124.97
2023-04-11T10:27:15.891Z,93126.75
2023-04-11T10:28:30.206Z,93121.41
2023-04-11T10:29:29.977Z,93130.38
2023-04-11T10:30:42.062Z,93119.28
2023-04-11T10:32:11.149Z,93127.19
2023-04-11T10:33:17.421Z,93059.50
2023-04-11T10:34:16.378Z,93095.88
2023-04-11T10:35:22.961Z,93077.41
2023-04-11T10:36:22.168Z,93101.91
2023-04-11T10:37:34.626Z,93107.75
2023-04-11T10:38:37.400Z,93111.53
2023-04-11T10:39:52.296Z,93117.41
2023-04-11T10:41:18.035Z,93110.56
2023-04-11T10:42:42.441Z,93106.69
2023-04-11T10:43:39.344Z,93105.66
2023-04-11T10:44:36.557Z,93113.91
2023-04-11T10:45:37.876Z,93094.13
2023-04-11T10:46:48.609Z,93096.59
2023-04-11T10:47:57.352Z,93105.91
2023-04-11T10:49:05.108Z,93104.16
2023-04-11T10:50:01.823Z,93105.28
2023-04-11T10:50:58.395Z,93095.91
2023-04-11T10:52:18.318Z,93093.56
2023-04-11T10:53:36.435Z,93095.59
2023-04-11T10:54:33.114Z,93097.19
2023-04-11T10:55:33.034Z,93090.72
2023-04-11T10:57:01.879Z,93094.72
2023-04-11T10:58:16.451Z,93098.00
2023-04-11T10:59:39.033Z,93089.94
2023-04-11T11:00:50.729Z,93094.34
2023-04-11T11:01:55.883Z,93087.69
2023-04-11T11:02:52.959Z,93068.69
2023-04-11T11:03:53.878Z,93080.19
2023-04-11T11:04:51.034Z,93014.56
2023-04-11T11:05:56.985Z,93084.19
2023-04-11T11:06:57.308Z,93076.41
2023-04-11T11:07:54.253Z,93082.41
2023-04-11T11:08:50.878Z,93075.81
2023-04-11T11:09:49.524Z,93077.94
2023-04-11T11:10:46.439Z,93032.03
2023-04-11T11:11:43.049Z,93075.72
2023-04-11T11:12:53.481Z,93078.38
2023-04-11T11:13:52.262Z,93075.25
2023-04-11T11:14:48.848Z,93077.63
2023-04-11T11:15:49.971Z,93079.50
2023-04-11T11:16:46.824Z,93067.06
2023-04-11T11:17:43.579Z,93073.06
2023-04-11T11:18:40.681Z,93079.28
2023-04-11T11:19:37.702Z,93065.00
2023-04-11T11:20:37.403Z,93068.06
2023-04-11T11:21:34.816Z,93068.91
2023-04-11T11:22:31.604Z,93067.13
2023-04-11T11:23:28.252Z,93073.16
2023-04-11T11:24:26.172Z,93072.28